Hovedside
METAR-TAF:

METAR-TAF

Lufthavner :

Amman, Jordan

breddegrad: 31-59N, lengdegrad: 035-59E, høyde over havet: 767 m

Gjeldene værobservasjon

Denne rapporten ble laget for 38 minutter siden, klokken 15:00 UTC
Vind 8 kt fra Nord
Temperatur 28°C
Luftfuktighet 35%
Trykk 1015 hPa
Sikt: 6000 m

METAR: OJAM 201500Z 35008KT 6000 NSC 28/11 Q1015 NOSIG

Tid: 18:38 (15:38 UTC)

Varsel

Denne rapporten ble laget for 4 timer og 48 minutter siden, klokken 10:50 UTC
Varsel gyldig fra 20. klokken 12 UTC til 21. klokken 18 UTC
Vind 5 kt fra Vest
Sikt: 6000 m
Midlertidig
fra 20. klokken 13 UTC til 20. klokken 18 UTC
Vind 12 kt fra Vest-nordvest
Sikt: 5000 m
dis

TAF: OJAM 201050Z 2012/2118 28005KT 6000 NSC TEMPO 2013/2018 30012KT 5000 HZ

Værobservasjoner og værvarsel for over 4000 flyplasser (METAR- og TAF-rapporter).

Tilgjengelige stasjoner er representert av de røde og gule prikkene på kartet.

Hold musepekeren over prikken for å se navnet på stasjonen.

Klikk så for å se værobservasjoner og -varsler.

For å forandre kartet kan du klikke på den grønne knappen med svart kryss for å zoome inn, på den grønne knappen med strek for å zoome ut, eller på de grønne pilene for å se tilstøtende kart.


METAR-TAF: